49.9°F
Current conditions from King Hill
Updated every 5 minutes
 
  Wednesday July 30, 2014

Station Historical Data
Daily Summary for February 10, 2011 Units:  Both    English   Metric
« Previous Day
Next Day »
Daily Weekly Monthly Yearly Custom
  High: Low: Average:
Temperature: 17.4 °F /  -8.1 °C 6.4 °F /  -14.2 °C 13.6 °F /  -10.2 °C
Dew Point: 11.9 °F /  -11.2 °C -2.1 °F /  -18.9 °C 3.4 °F /  -15.9 °C
Humidity: 80% 45% 64%
Wind Speed: 8.0mph /  12.9km/h - 3.3mph /  5.3km/h
Wind Gust: 15.0mph /  24.1km/h - -
Wind- - West
Pressure: 29.98 in /  1015.1 hPa 29.88 in /  1011.7 hPa -
Precipitation: 0.00 in /  0 mm    
Historical Graphs
 
 
Tabular Data for February 10, 2011
Time Temperature Dew Point Pressure Wind Wind Speed Wind Gust Humidity Daily Rainfall
00:00 17.0 °F /  -8.3 °C 11.9 °F /  -11.2 °C 29.90in /  1012.4hPa West 3.0mph /  4.8km/h 9.0mph /  14.5km/h 80% 0.00in /  0mm
00:05 17.0 °F /  -8.3 °C 11.9 °F /  -11.2 °C 29.90in /  1012.4hPa WSW 4.0mph /  6.4km/h 8.0mph /  12.9km/h 80% 0.00in /  0mm
00:10 17.0 °F /  -8.3 °C 11.6 °F /  -11.3 °C 29.90in /  1012.4hPa WSW 4.0mph /  6.4km/h 11.0mph /  17.7km/h 79% 0.00in /  0mm
00:15 16.9 °F /  -8.4 °C 10.9 °F /  -11.7 °C 29.90in /  1012.4hPa West 6.0mph /  9.7km/h 11.0mph /  17.7km/h 77% 0.00in /  0mm
00:20 16.9 °F /  -8.4 °C 10.6 °F /  -11.9 °C 29.90in /  1012.4hPa West 4.0mph /  6.4km/h 10.0mph /  16.1km/h 76% 0.00in /  0mm
00:25 16.8 °F /  -8.4 °C 10.6 °F /  -11.9 °C 29.90in /  1012.4hPa WSW 3.0mph /  4.8km/h 10.0mph /  16.1km/h 76% 0.00in /  0mm
00:30 16.7 °F /  -8.5 °C 9.9 °F /  -12.3 °C 29.90in /  1012.4hPa WSW 4.0mph /  6.4km/h 11.0mph /  17.7km/h 74% 0.00in /  0mm
00:35 16.8 °F /  -8.4 °C 9.6 °F /  -12.4 °C 29.90in /  1012.4hPa WSW 4.0mph /  6.4km/h 11.0mph /  17.7km/h 73% 0.00in /  0mm
00:40 16.9 °F /  -8.4 °C 9.4 °F /  -12.6 °C 29.90in /  1012.4hPa West 4.0mph /  6.4km/h 14.0mph /  22.5km/h 72% 0.00in /  0mm
00:45 16.8 °F /  -8.4 °C 9.3 °F /  -12.6 °C 29.90in /  1012.4hPa West 5.0mph /  8km/h 14.0mph /  22.5km/h 72% 0.00in /  0mm
00:50 16.8 °F /  -8.4 °C 9.0 °F /  -12.8 °C 29.90in /  1012.4hPa WSW 6.0mph /  9.7km/h 14.0mph /  22.5km/h 71% 0.00in /  0mm
00:55 16.8 °F /  -8.4 °C 8.7 °F /  -12.9 °C 29.90in /  1012.4hPa West 6.0mph /  9.7km/h 14.0mph /  22.5km/h 70% 0.00in /  0mm
01:00 16.7 °F /  -8.5 °C 8.6 °F /  -13 °C 29.90in /  1012.4hPa West 5.0mph /  8km/h 11.0mph /  17.7km/h 70% 0.00in /  0mm
01:05 16.7 °F /  -8.5 °C 8.6 °F /  -13 °C 29.90in /  1012.4hPa SW 4.0mph /  6.4km/h 11.0mph /  17.7km/h 70% 0.00in /  0mm
01:10 16.7 °F /  -8.5 °C 8.9 °F /  -12.8 °C 29.90in /  1012.4hPa WSW 3.0mph /  4.8km/h 9.0mph /  14.5km/h 71% 0.00in /  0mm
01:15 16.7 °F /  -8.5 °C 8.9 °F /  -12.8 °C 29.90in /  1012.4hPa WSW 4.0mph /  6.4km/h 12.0mph /  19.3km/h 71% 0.00in /  0mm
01:20 16.5 °F /  -8.6 °C 8.4 °F /  -13.1 °C 29.89in /  1012.1hPa West 4.0mph /  6.4km/h 12.0mph /  19.3km/h 70% 0.00in /  0mm
01:25 16.3 °F /  -8.7 °C 8.2 °F /  -13.2 °C 29.89in /  1012.1hPa WSW 3.0mph /  4.8km/h 7.0mph /  11.3km/h 70% 0.00in /  0mm
01:30 16.2 °F /  -8.8 °C 8.5 °F /  -13.1 °C 29.90in /  1012.4hPa WSW 4.0mph /  6.4km/h 7.0mph /  11.3km/h 71% 0.00in /  0mm
01:35 16.1 °F /  -8.8 °C 8.4 °F /  -13.1 °C 29.89in /  1012.1hPa WSW 2.0mph /  3.2km/h 6.0mph /  9.7km/h 71% 0.00in /  0mm
01:40 15.9 °F /  -8.9 °C 8.2 °F /  -13.2 °C 29.89in /  1012.1hPa SW 4.0mph /  6.4km/h 8.0mph /  12.9km/h 71% 0.00in /  0mm
01:45 15.9 °F /  -8.9 °C 8.2 °F /  -13.2 °C 29.90in /  1012.4hPa West 4.0mph /  6.4km/h 8.0mph /  12.9km/h 71% 0.00in /  0mm
01:50 15.8 °F /  -9 °C 8.1 °F /  -13.3 °C 29.90in /  1012.4hPa West 3.0mph /  4.8km/h 8.0mph /  12.9km/h 71% 0.00in /  0mm
01:55 15.6 °F /  -9.1 °C 7.9 °F /  -13.4 °C 29.89in /  1012.1hPa West 3.0mph /  4.8km/h 7.0mph /  11.3km/h 71% 0.00in /  0mm
02:00 15.5 °F /  -9.2 °C 7.8 °F /  -13.4 °C 29.90in /  1012.4hPa West 3.0mph /  4.8km/h 7.0mph /  11.3km/h 71% 0.00in /  0mm
02:05 15.3 °F /  -9.3 °C 7.9 °F /  -13.4 °C 29.90in /  1012.4hPa WSW 5.0mph /  8km/h 7.0mph /  11.3km/h 72% 0.00in /  0mm
02:10 15.3 °F /  -9.3 °C 7.9 °F /  -13.4 °C 29.90in /  1012.4hPa West 4.0mph /  6.4km/h 8.0mph /  12.9km/h 72% 0.00in /  0mm
02:15 15.3 °F /  -9.3 °C 7.9 °F /  -13.4 °C 29.89in /  1012.1hPa West 3.0mph /  4.8km/h 8.0mph /  12.9km/h 72% 0.00in /  0mm
02:20 15.2 °F /  -9.3 °C 7.8 °F /  -13.4 °C 29.89in /  1012.1hPa WSW 4.0mph /  6.4km/h 8.0mph /  12.9km/h 72% 0.00in /  0mm
02:25 15.1 °F /  -9.4 °C 8.0 °F /  -13.3 °C 29.89in /  1012.1hPa West 4.0mph /  6.4km/h 10.0mph /  16.1km/h 73% 0.00in /  0mm
02:30 15.0 °F /  -9.4 °C 7.9 °F /  -13.4 °C 29.89in /  1012.1hPa West 2.0mph /  3.2km/h 10.0mph /  16.1km/h 73% 0.00in /  0mm
02:35 14.9 °F /  -9.5 °C 7.8 °F /  -13.4 °C 29.89in /  1012.1hPa West 5.0mph /  8km/h 8.0mph /  12.9km/h 73% 0.00in /  0mm
02:40 15.0 °F /  -9.4 °C 7.9 °F /  -13.4 °C 29.89in /  1012.1hPa West 5.0mph /  8km/h 9.0mph /  14.5km/h 73% 0.00in /  0mm
02:45 14.9 °F /  -9.5 °C 7.8 °F /  -13.4 °C 29.89in /  1012.1hPa West 4.0mph /  6.4km/h 9.0mph /  14.5km/h 73% 0.00in /  0mm
02:50 14.9 °F /  -9.5 °C 7.8 °F /  -13.4 °C 29.89in /  1012.1hPa West 4.0mph /  6.4km/h 10.0mph /  16.1km/h 73% 0.00in /  0mm
02:55 14.8 °F /  -9.6 °C 7.7 °F /  -13.5 °C 29.89in /  1012.1hPa West 4.0mph /  6.4km/h 11.0mph /  17.7km/h 73% 0.00in /  0mm
03:00 14.8 °F /  -9.6 °C 7.7 °F /  -13.5 °C 29.89in /  1012.1hPa WSW 5.0mph /  8km/h 11.0mph /  17.7km/h 73% 0.00in /  0mm
03:05 14.7 °F /  -9.6 °C 7.6 °F /  -13.6 °C 29.89in /  1012.1hPa WSW 4.0mph /  6.4km/h 8.0mph /  12.9km/h 73% 0.00in /  0mm
03:10 14.7 °F /  -9.6 °C 7.6 °F /  -13.6 °C 29.89in /  1012.1hPa WSW 3.0mph /  4.8km/h 8.0mph /  12.9km/h 73% 0.00in /  0mm
03:15 14.7 °F /  -9.6 °C 7.6 °F /  -13.6 °C 29.89in /  1012.1hPa WSW 4.0mph /  6.4km/h 8.0mph /  12.9km/h 73% 0.00in /  0mm
03:20 14.6 °F /  -9.7 °C 7.5 °F /  -13.6 °C 29.89in /  1012.1hPa West 4.0mph /  6.4km/h 9.0mph /  14.5km/h 73% 0.00in /  0mm
03:25 14.5 °F /  -9.7 °C 7.4 °F /  -13.7 °C 29.89in /  1012.1hPa West 4.0mph /  6.4km/h 9.0mph /  14.5km/h 73% 0.00in /  0mm
03:30 14.3 °F /  -9.8 °C 7.2 °F /  -13.8 °C 29.89in /  1012.1hPa West 4.0mph /  6.4km/h 8.0mph /  12.9km/h 73% 0.00in /  0mm
03:35 14.1 °F /  -9.9 °C 7.0 °F /  -13.9 °C 29.88in /  1011.7hPa West 4.0mph /  6.4km/h 8.0mph /  12.9km/h 73% 0.00in /  0mm
03:40 14.0 °F /  -10 °C 6.9 °F /  -13.9 °C 29.89in /  1012.1hPa West 3.0mph /  4.8km/h 8.0mph /  12.9km/h 73% 0.00in /  0mm
03:45 13.7 °F /  -10.2 °C 6.7 °F /  -14.1 °C 29.89in /  1012.1hPa WSW 4.0mph /  6.4km/h 8.0mph /  12.9km/h 73% 0.00in /  0mm
03:50 13.3 °F /  -10.4 °C 6.3 °F /  -14.3 °C 29.89in /  1012.1hPa WSW 4.0mph /  6.4km/h 6.0mph /  9.7km/h 73% 0.00in /  0mm
03:55 12.4 °F /  -10.9 °C 5.4 °F /  -14.8 °C 29.89in /  1012.1hPa WSW 4.0mph /  6.4km/h 7.0mph /  11.3km/h 73% 0.00in /  0mm
04:00 12.3 °F /  -10.9 °C 5.6 °F /  -14.7 °C 29.88in /  1011.7hPa WSW 3.0mph /  4.8km/h 7.0mph /  11.3km/h 74% 0.00in /  0mm
04:05 12.0 °F /  -11.1 °C 5.3 °F /  -14.8 °C 29.89in /  1012.1hPa West 3.0mph /  4.8km/h 8.0mph /  12.9km/h 74% 0.00in /  0mm
04:10 12.0 °F /  -11.1 °C 5.3 °F /  -14.8 °C 29.89in /  1012.1hPa WSW 4.0mph /  6.4km/h 8.0mph /  12.9km/h 74% 0.00in /  0mm
04:15 12.0 °F /  -11.1 °C 5.3 °F /  -14.8 °C 29.89in /  1012.1hPa West 5.0mph /  8km/h 8.0mph /  12.9km/h 74% 0.00in /  0mm
04:20 12.1 °F /  -11.1 °C 4.8 °F /  -15.1 °C 29.89in /  1012.1hPa WNW 1.0mph /  1.6km/h 8.0mph /  12.9km/h 72% 0.00in /  0mm
04:25 11.5 °F /  -11.4 °C 4.5 °F /  -15.3 °C 29.89in /  1012.1hPa West 4.0mph /  6.4km/h 7.0mph /  11.3km/h 73% 0.00in /  0mm
04:30 11.5 °F /  -11.4 °C 4.8 °F /  -15.1 °C 29.89in /  1012.1hPa West 4.0mph /  6.4km/h 7.0mph /  11.3km/h 74% 0.00in /  0mm
04:35 11.5 °F /  -11.4 °C 4.8 °F /  -15.1 °C 29.89in /  1012.1hPa West 3.0mph /  4.8km/h 7.0mph /  11.3km/h 74% 0.00in /  0mm
04:40 11.7 °F /  -11.3 °C 5.3 °F /  -14.8 °C 29.89in /  1012.1hPa West 3.0mph /  4.8km/h 5.0mph /  8km/h 75% 0.00in /  0mm
04:45 11.7 °F /  -11.3 °C 4.7 °F /  -15.2 °C 29.89in /  1012.1hPa West 2.0mph /  3.2km/h 5.0mph /  8km/h 73% 0.00in /  0mm
04:50 11.0 °F /  -11.7 °C 4.0 °F /  -15.6 °C 29.89in /  1012.1hPa West 3.0mph /  4.8km/h 6.0mph /  9.7km/h 73% 0.00in /  0mm
04:55 10.6 °F /  -11.9 °C 4.0 °F /  -15.6 °C 29.89in /  1012.1hPa West 2.0mph /  3.2km/h 6.0mph /  9.7km/h 74% 0.00in /  0mm
05:00 9.9 °F /  -12.3 °C 3.3 °F /  -15.9 °C 29.89in /  1012.1hPa West 2.0mph /  3.2km/h 6.0mph /  9.7km/h 74% 0.00in /  0mm
05:05 9.9 °F /  -12.3 °C 3.9 °F /  -15.6 °C 29.89in /  1012.1hPa WSW 2.0mph /  3.2km/h 5.0mph /  8km/h 76% 0.00in /  0mm
05:10 9.9 °F /  -12.3 °C 3.9 °F /  -15.6 °C 29.89in /  1012.1hPa WSW 2.0mph /  3.2km/h 5.0mph /  8km/h 76% 0.00in /  0mm
05:15 9.6 °F /  -12.4 °C 3.3 °F /  -15.9 °C 29.89in /  1012.1hPa WSW 2.0mph /  3.2km/h 5.0mph /  8km/h 75% 0.00in /  0mm
05:20 9.4 °F /  -12.6 °C 3.4 °F /  -15.9 °C 29.89in /  1012.1hPa WSW 2.0mph /  3.2km/h 4.0mph /  6.4km/h 76% 0.00in /  0mm
05:25 8.9 °F /  -12.8 °C 2.9 °F /  -16.2 °C 29.89in /  1012.1hPa Calm   4.0mph /  6.4km/h 76% 0.00in /  0mm
05:30 8.4 °F /  -13.1 °C 2.4 °F /  -16.4 °C 29.89in /  1012.1hPa WSW 2.0mph /  3.2km/h 3.0mph /  4.8km/h 76% 0.00in /  0mm
05:35 8.3 °F /  -13.2 °C 2.6 °F /  -16.3 °C 29.89in /  1012.1hPa SW 2.0mph /  3.2km/h 5.0mph /  8km/h 77% 0.00in /  0mm
05:40 8.6 °F /  -13 °C 3.2 °F /  -16 °C 29.89in /  1012.1hPa SW 3.0mph /  4.8km/h 5.0mph /  8km/h 78% 0.00in /  0mm
05:45 8.7 °F /  -12.9 °C 3.2 °F /  -16 °C 29.89in /  1012.1hPa WSW 2.0mph /  3.2km/h 4.0mph /  6.4km/h 78% 0.00in /  0mm
05:50 8.6 °F /  -13 °C 2.9 °F /  -16.2 °C 29.90in /  1012.4hPa WSW 2.0mph /  3.2km/h 5.0mph /  8km/h 77% 0.00in /  0mm
05:55 8.2 °F /  -13.2 °C 2.5 °F /  -16.4 °C 29.90in /  1012.4hPa WSW 2.0mph /  3.2km/h 6.0mph /  9.7km/h 77% 0.00in /  0mm
06:00 8.0 °F /  -13.3 °C 2.3 °F /  -16.5 °C 29.90in /  1012.4hPa SW 3.0mph /  4.8km/h 6.0mph /  9.7km/h 77% 0.00in /  0mm
06:05 7.9 °F /  -13.4 °C 2.5 °F /  -16.4 °C 29.90in /  1012.4hPa WSW 2.0mph /  3.2km/h 6.0mph /  9.7km/h 78% 0.00in /  0mm
06:10 7.7 °F /  -13.5 °C 2.3 °F /  -16.5 °C 29.90in /  1012.4hPa WSW 2.0mph /  3.2km/h 6.0mph /  9.7km/h 78% 0.00in /  0mm
06:15 7.2 °F /  -13.8 °C 1.8 °F /  -16.8 °C 29.90in /  1012.4hPa WSW 2.0mph /  3.2km/h 3.0mph /  4.8km/h 78% 0.00in /  0mm
06:20 7.2 °F /  -13.8 °C 2.1 °F /  -16.6 °C 29.91in /  1012.8hPa SW 3.0mph /  4.8km/h 5.0mph /  8km/h 79% 0.00in /  0mm
06:25 7.1 °F /  -13.8 °C 2.0 °F /  -16.7 °C 29.91in /  1012.8hPa WSW 3.0mph /  4.8km/h 5.0mph /  8km/h 79% 0.00in /  0mm
06:30 7.3 °F /  -13.7 °C 2.2 °F /  -16.6 °C 29.91in /  1012.8hPa West 1.0mph /  1.6km/h 5.0mph /  8km/h 79% 0.00in /  0mm
06:35 7.7 °F /  -13.5 °C 2.5 °F /  -16.4 °C 29.91in /  1012.8hPa West 3.0mph /  4.8km/h 5.0mph /  8km/h 79% 0.00in /  0mm
06:40 7.7 °F /  -13.5 °C 2.3 °F /  -16.5 °C 29.91in /  1012.8hPa WSW 2.0mph /  3.2km/h 5.0mph /  8km/h 78% 0.00in /  0mm
06:45 7.3 °F /  -13.7 °C 1.9 °F /  -16.7 °C 29.91in /  1012.8hPa West 1.0mph /  1.6km/h 5.0mph /  8km/h 78% 0.00in /  0mm
06:50 7.1 °F /  -13.8 °C 1.7 °F /  -16.8 °C 29.91in /  1012.8hPa Calm   5.0mph /  8km/h 78% 0.00in /  0mm
06:55 6.6 °F /  -14.1 °C 1.2 °F /  -17.1 °C 29.91in /  1012.8hPa SW 2.0mph /  3.2km/h 5.0mph /  8km/h 78% 0.00in /  0mm
07:00 6.9 °F /  -13.9 °C 1.8 °F /  -16.8 °C 29.91in /  1012.8hPa SW 3.0mph /  4.8km/h 6.0mph /  9.7km/h 79% 0.00in /  0mm
07:05 7.0 °F /  -13.9 °C 1.9 °F /  -16.7 °C 29.91in /  1012.8hPa WSW 3.0mph /  4.8km/h 6.0mph /  9.7km/h 79% 0.00in /  0mm
07:10 7.4 °F /  -13.7 °C 2.3 °F /  -16.5 °C 29.91in /  1012.8hPa Calm   6.0mph /  9.7km/h 79% 0.00in /  0mm
07:15 7.8 °F /  -13.4 °C 2.6 °F /  -16.3 °C 29.91in /  1012.8hPa WSW 3.0mph /  4.8km/h 6.0mph /  9.7km/h 79% 0.00in /  0mm
07:20 7.6 °F /  -13.6 °C 2.2 °F /  -16.6 °C 29.91in /  1012.8hPa WSW 1.0mph /  1.6km/h 7.0mph /  11.3km/h 78% 0.00in /  0mm
07:25 7.2 °F /  -13.8 °C 1.8 °F /  -16.8 °C 29.91in /  1012.8hPa WSW 2.0mph /  3.2km/h 7.0mph /  11.3km/h 78% 0.00in /  0mm
07:30 6.8 °F /  -14 °C 1.1 °F /  -17.2 °C 29.91in /  1012.8hPa West 1.0mph /  1.6km/h 3.0mph /  4.8km/h 77% 0.00in /  0mm
07:35 6.4 °F /  -14.2 °C 1.0 °F /  -17.2 °C 29.91in /  1012.8hPa West 1.0mph /  1.6km/h 4.0mph /  6.4km/h 78% 0.00in /  0mm
07:40 6.9 °F /  -13.9 °C 1.8 °F /  -16.8 °C 29.92in /  1013.1hPa West 2.0mph /  3.2km/h 7.0mph /  11.3km/h 79% 0.00in /  0mm
07:45 7.3 °F /  -13.7 °C 2.2 °F /  -16.6 °C 29.92in /  1013.1hPa West 3.0mph /  4.8km/h 9.0mph /  14.5km/h 79% 0.00in /  0mm
07:50 8.1 °F /  -13.3 °C 2.7 °F /  -16.3 °C 29.92in /  1013.1hPa West 3.0mph /  4.8km/h 9.0mph /  14.5km/h 78% 0.00in /  0mm
07:55 8.4 °F /  -13.1 °C 3.0 °F /  -16.1 °C 29.92in /  1013.1hPa West 3.0mph /  4.8km/h 8.0mph /  12.9km/h 78% 0.00in /  0mm
08:00 8.7 °F /  -12.9 °C 3.0 °F /  -16.1 °C 29.92in /  1013.1hPa West 5.0mph /  8km/h 9.0mph /  14.5km/h 77% 0.00in /  0mm
08:05 9.5 °F /  -12.5 °C 3.7 °F /  -15.7 °C 29.92in /  1013.1hPa West 5.0mph /  8km/h 11.0mph /  17.7km/h 77% 0.00in /  0mm
08:10 9.5 °F /  -12.5 °C 3.2 °F /  -16 °C 29.92in /  1013.1hPa WSW 3.0mph /  4.8km/h 11.0mph /  17.7km/h 75% 0.00in /  0mm
08:15 9.6 °F /  -12.4 °C 3.3 °F /  -15.9 °C 29.92in /  1013.1hPa WSW 3.0mph /  4.8km/h 7.0mph /  11.3km/h 75% 0.00in /  0mm
08:20 9.9 °F /  -12.3 °C 3.6 °F /  -15.8 °C 29.92in /  1013.1hPa WSW 4.0mph /  6.4km/h 7.0mph /  11.3km/h 75% 0.00in /  0mm
08:25 10.0 °F /  -12.2 °C 3.7 °F /  -15.7 °C 29.92in /  1013.1hPa West 5.0mph /  8km/h 9.0mph /  14.5km/h 75% 0.00in /  0mm
08:30 10.3 °F /  -12.1 °C 3.7 °F /  -15.7 °C 29.92in /  1013.1hPa West 4.0mph /  6.4km/h 9.0mph /  14.5km/h 74% 0.00in /  0mm
08:35 10.4 °F /  -12 °C 3.8 °F /  -15.7 °C 29.92in /  1013.1hPa WSW 3.0mph /  4.8km/h 9.0mph /  14.5km/h 74% 0.00in /  0mm
08:40 10.3 °F /  -12.1 °C 3.4 °F /  -15.9 °C 29.92in /  1013.1hPa WSW 5.0mph /  8km/h 8.0mph /  12.9km/h 73% 0.00in /  0mm
08:45 10.8 °F /  -11.8 °C 3.8 °F /  -15.7 °C 29.92in /  1013.1hPa West 7.0mph /  11.3km/h 13.0mph /  20.9km/h 73% 0.00in /  0mm
08:50 10.9 °F /  -11.7 °C 3.6 °F /  -15.8 °C 29.92in /  1013.1hPa WNW 2.0mph /  3.2km/h 13.0mph /  20.9km/h 72% 0.00in /  0mm
08:55 11.2 °F /  -11.6 °C 3.9 °F /  -15.6 °C 29.92in /  1013.1hPa West 5.0mph /  8km/h 11.0mph /  17.7km/h 72% 0.00in /  0mm
09:00 11.7 °F /  -11.3 °C 4.1 °F /  -15.5 °C 29.92in /  1013.1hPa West 6.0mph /  9.7km/h 11.0mph /  17.7km/h 71% 0.00in /  0mm
09:05 12.3 °F /  -10.9 °C 4.7 °F /  -15.2 °C 29.92in /  1013.1hPa West 2.0mph /  3.2km/h 9.0mph /  14.5km/h 71% 0.00in /  0mm
09:10 12.6 °F /  -10.8 °C 4.7 °F /  -15.2 °C 29.92in /  1013.1hPa West 8.0mph /  12.9km/h 14.0mph /  22.5km/h 70% 0.00in /  0mm
09:15 12.8 °F /  -10.7 °C 4.6 °F /  -15.2 °C 29.92in /  1013.1hPa WNW 3.0mph /  4.8km/h 14.0mph /  22.5km/h 69% 0.00in /  0mm
09:20 12.9 °F /  -10.6 °C 4.3 °F /  -15.4 °C 29.92in /  1013.1hPa WNW 6.0mph /  9.7km/h 11.0mph /  17.7km/h 68% 0.00in /  0mm
09:25 12.9 °F /  -10.6 °C 4.3 °F /  -15.4 °C 29.92in /  1013.1hPa WSW 6.0mph /  9.7km/h 11.0mph /  17.7km/h 68% 0.00in /  0mm
09:30 13.1 °F /  -10.5 °C 4.2 °F /  -15.4 °C 29.92in /  1013.1hPa West 7.0mph /  11.3km/h 11.0mph /  17.7km/h 67% 0.00in /  0mm
09:35 13.2 °F /  -10.4 °C 4.3 °F /  -15.4 °C 29.92in /  1013.1hPa West 3.0mph /  4.8km/h 12.0mph /  19.3km/h 67% 0.00in /  0mm
09:40 13.3 °F /  -10.4 °C 4.1 °F /  -15.5 °C 29.93in /  1013.4hPa WSW 6.0mph /  9.7km/h 12.0mph /  19.3km/h 66% 0.00in /  0mm
09:45 13.5 °F /  -10.3 °C 4.3 °F /  -15.4 °C 29.93in /  1013.4hPa West 4.0mph /  6.4km/h 12.0mph /  19.3km/h 66% 0.00in /  0mm
09:50 13.6 °F /  -10.2 °C 4.0 °F /  -15.6 °C 29.93in /  1013.4hPa WNW 8.0mph /  12.9km/h 14.0mph /  22.5km/h 65% 0.00in /  0mm
09:55 13.7 °F /  -10.2 °C 4.1 °F /  -15.5 °C 29.93in /  1013.4hPa NW 7.0mph /  11.3km/h 14.0mph /  22.5km/h 65% 0.00in /  0mm
10:00 13.8 °F /  -10.1 °C 4.2 °F /  -15.4 °C 29.93in /  1013.4hPa West 5.0mph /  8km/h 11.0mph /  17.7km/h 65% 0.00in /  0mm
10:05 13.9 °F /  -10.1 °C 4.0 °F /  -15.6 °C 29.93in /  1013.4hPa WNW 6.0mph /  9.7km/h 10.0mph /  16.1km/h 64% 0.00in /  0mm
10:10 14.2 °F /  -9.9 °C 3.9 °F /  -15.6 °C 29.93in /  1013.4hPa West 6.0mph /  9.7km/h 14.0mph /  22.5km/h 63% 0.00in /  0mm
10:15 14.2 °F /  -9.9 °C 3.9 °F /  -15.6 °C 29.93in /  1013.4hPa WNW 4.0mph /  6.4km/h 14.0mph /  22.5km/h 63% 0.00in /  0mm
10:20 14.3 °F /  -9.8 °C 3.7 °F /  -15.7 °C 29.94in /  1013.8hPa NW 6.0mph /  9.7km/h 12.0mph /  19.3km/h 62% 0.00in /  0mm
10:25 14.2 °F /  -9.9 °C 3.6 °F /  -15.8 °C 29.94in /  1013.8hPa West 7.0mph /  11.3km/h 12.0mph /  19.3km/h 62% 0.00in /  0mm
10:30 14.5 °F /  -9.7 °C 3.8 °F /  -15.7 °C 29.94in /  1013.8hPa WSW 3.0mph /  4.8km/h 11.0mph /  17.7km/h 62% 0.00in /  0mm
10:35 14.6 °F /  -9.7 °C 2.9 °F /  -16.2 °C 29.95in /  1014.1hPa West 6.0mph /  9.7km/h 10.0mph /  16.1km/h 59% 0.00in /  0mm
10:40 14.5 °F /  -9.7 °C 2.8 °F /  -16.2 °C 29.95in /  1014.1hPa West 6.0mph /  9.7km/h 12.0mph /  19.3km/h 59% 0.00in /  0mm
10:45 14.6 °F /  -9.7 °C 2.5 °F /  -16.4 °C 29.94in /  1013.8hPa West 7.0mph /  11.3km/h 12.0mph /  19.3km/h 58% 0.00in /  0mm
10:50 14.6 °F /  -9.7 °C 2.1 °F /  -16.6 °C 29.94in /  1013.8hPa WNW 5.0mph /  8km/h 12.0mph /  19.3km/h 57% 0.00in /  0mm
10:55 14.4 °F /  -9.8 °C 2.3 °F /  -16.5 °C 29.95in /  1014.1hPa WNW 7.0mph /  11.3km/h 15.0mph /  24.1km/h 58% 0.00in /  0mm
11:00 14.6 °F /  -9.7 °C 2.5 °F /  -16.4 °C 29.95in /  1014.1hPa WNW 5.0mph /  8km/h 15.0mph /  24.1km/h 58% 0.00in /  0mm
11:05 15.0 °F /  -9.4 °C 2.9 °F /  -16.2 °C 29.94in /  1013.8hPa WNW 5.0mph /  8km/h 10.0mph /  16.1km/h 58% 0.00in /  0mm
11:10 15.4 °F /  -9.2 °C 2.5 °F /  -16.4 °C 29.95in /  1014.1hPa WNW 5.0mph /  8km/h 11.0mph /  17.7km/h 56% 0.00in /  0mm
11:15 15.2 °F /  -9.3 °C 2.7 °F /  -16.3 °C 29.95in /  1014.1hPa WNW 6.0mph /  9.7km/h 14.0mph /  22.5km/h 57% 0.00in /  0mm
11:20 15.0 °F /  -9.4 °C 3.2 °F /  -16 °C 29.95in /  1014.1hPa NNW 6.0mph /  9.7km/h 14.0mph /  22.5km/h 59% 0.00in /  0mm
11:25 15.3 °F /  -9.3 °C 3.2 °F /  -16 °C 29.94in /  1013.8hPa WNW 2.0mph /  3.2km/h 11.0mph /  17.7km/h 58% 0.00in /  0mm
11:30 15.4 °F /  -9.2 °C 4.0 °F /  -15.6 °C 29.95in /  1014.1hPa NW 3.0mph /  4.8km/h 10.0mph /  16.1km/h 60% 0.00in /  0mm
11:35 15.8 °F /  -9 °C 4.4 °F /  -15.3 °C 29.94in /  1013.8hPa NW 2.0mph /  3.2km/h 8.0mph /  12.9km/h 60% 0.00in /  0mm
11:40 16.1 °F /  -8.8 °C 4.3 °F /  -15.4 °C 29.94in /  1013.8hPa North 1.0mph /  1.6km/h 9.0mph /  14.5km/h 59% 0.00in /  0mm
11:45 16.3 °F /  -8.7 °C 4.8 °F /  -15.1 °C 29.95in /  1014.1hPa NW 2.0mph /  3.2km/h 9.0mph /  14.5km/h 60% 0.00in /  0mm
11:50 16.6 °F /  -8.6 °C 4.8 °F /  -15.1 °C 29.95in /  1014.1hPa NNW 3.0mph /  4.8km/h 8.0mph /  12.9km/h 59% 0.00in /  0mm
11:55 17.2 °F /  -8.2 °C 5.0 °F /  -15 °C 29.94in /  1013.8hPa North 4.0mph /  6.4km/h 8.0mph /  12.9km/h 58% 0.00in /  0mm
12:00 17.4 °F /  -8.1 °C 5.1 °F /  -14.9 °C 29.94in /  1013.8hPa North 3.0mph /  4.8km/h 7.0mph /  11.3km/h 58% 0.00in /  0mm
12:05 16.9 °F /  -8.4 °C 4.3 °F /  -15.4 °C 29.94in /  1013.8hPa NNW 3.0mph /  4.8km/h 8.0mph /  12.9km/h 57% 0.00in /  0mm
12:10 16.6 °F /  -8.6 °C 4.0 °F /  -15.6 °C 29.94in /  1013.8hPa North 3.0mph /  4.8km/h 10.0mph /  16.1km/h 57% 0.00in /  0mm
12:15 16.6 °F /  -8.6 °C 4.0 °F /  -15.6 °C 29.94in /  1013.8hPa NNW 4.0mph /  6.4km/h 10.0mph /  16.1km/h 57% 0.00in /  0mm
12:20 16.4 °F /  -8.7 °C 3.4 °F /  -15.9 °C 29.94in /  1013.8hPa NNW 2.0mph /  3.2km/h 9.0mph /  14.5km/h 56% 0.00in /  0mm
12:25 16.3 °F /  -8.7 °C 3.3 °F /  -15.9 °C 29.94in /  1013.8hPa NW 3.0mph /  4.8km/h 9.0mph /  14.5km/h 56% 0.00in /  0mm
12:30 16.7 °F /  -8.5 °C 4.1 °F /  -15.5 °C 29.93in /  1013.4hPa NNW 5.0mph /  8km/h 10.0mph /  16.1km/h 57% 0.00in /  0mm
12:35 16.8 °F /  -8.4 °C 3.0 °F /  -16.1 °C 29.93in /  1013.4hPa NW 6.0mph /  9.7km/h 10.0mph /  16.1km/h 54% 0.00in /  0mm
12:40 16.4 °F /  -8.7 °C 2.6 °F /  -16.3 °C 29.93in /  1013.4hPa NW 7.0mph /  11.3km/h 10.0mph /  16.1km/h 54% 0.00in /  0mm
12:45 16.3 °F /  -8.7 °C 3.7 °F /  -15.7 °C 29.93in /  1013.4hPa NNW 1.0mph /  1.6km/h 10.0mph /  16.1km/h 57% 0.00in /  0mm
12:50 17.0 °F /  -8.3 °C 3.6 °F /  -15.8 °C 29.93in /  1013.4hPa NNW 2.0mph /  3.2km/h 7.0mph /  11.3km/h 55% 0.00in /  0mm
12:55 16.8 °F /  -8.4 °C 2.6 °F /  -16.3 °C 29.93in /  1013.4hPa NW 4.0mph /  6.4km/h 10.0mph /  16.1km/h 53% 0.00in /  0mm
13:00 16.8 °F /  -8.4 °C 3.0 °F /  -16.1 °C 29.93in /  1013.4hPa North 2.0mph /  3.2km/h 10.0mph /  16.1km/h 54% 0.00in /  0mm
13:05 17.1 °F /  -8.3 °C 2.9 °F /  -16.2 °C 29.93in /  1013.4hPa NNW 3.0mph /  4.8km/h 6.0mph /  9.7km/h 53% 0.00in /  0mm
13:10 16.5 °F /  -8.6 °C 2.3 °F /  -16.5 °C 29.93in /  1013.4hPa NW 1.0mph /  1.6km/h 9.0mph /  14.5km/h 53% 0.00in /  0mm
13:15 16.8 °F /  -8.4 °C 2.2 °F /  -16.6 °C 29.93in /  1013.4hPa NW 1.0mph /  1.6km/h 9.0mph /  14.5km/h 52% 0.00in /  0mm
13:20 16.9 °F /  -8.4 °C 1.9 °F /  -16.7 °C 29.93in /  1013.4hPa NNW 4.0mph /  6.4km/h 10.0mph /  16.1km/h 51% 0.00in /  0mm
13:25 17.1 °F /  -8.3 °C 1.2 °F /  -17.1 °C 29.93in /  1013.4hPa Calm   10.0mph /  16.1km/h 49% 0.00in /  0mm
13:30 16.9 °F /  -8.4 °C 1.0 °F /  -17.2 °C 29.93in /  1013.4hPa NW 2.0mph /  3.2km/h 6.0mph /  9.7km/h 49% 0.00in /  0mm
13:35 16.7 °F /  -8.5 °C 0.8 °F /  -17.3 °C 29.93in /  1013.4hPa NNW 3.0mph /  4.8km/h 6.0mph /  9.7km/h 49% 0.00in /  0mm
13:40 16.1 °F /  -8.8 °C -0.2 °F /  -17.9 °C 29.93in /  1013.4hPa NNW 2.0mph /  3.2km/h 8.0mph /  12.9km/h 48% 0.00in /  0mm
13:45 15.9 °F /  -8.9 °C -0.3 °F /  -17.9 °C 29.93in /  1013.4hPa NNW 1.0mph /  1.6km/h 8.0mph /  12.9km/h 48% 0.00in /  0mm
13:50 15.6 °F /  -9.1 °C -0.6 °F /  -18.1 °C 29.93in /  1013.4hPa NW 1.0mph /  1.6km/h 7.0mph /  11.3km/h 48% 0.00in /  0mm
13:55 15.6 °F /  -9.1 °C -0.2 °F /  -17.9 °C 29.93in /  1013.4hPa Calm   7.0mph /  11.3km/h 49% 0.00in /  0mm
14:05 15.7 °F /  -9.1 °C 0.3 °F /  -17.6 °C 29.93in /  1013.4hPa NNW 1.0mph /  1.6km/h 7.0mph /  11.3km/h 50% 0.00in /  0mm
14:10 15.8 °F /  -9 °C -0.4 °F /  -18 °C 29.92in /  1013.1hPa NNW 3.0mph /  4.8km/h 7.0mph /  11.3km/h 48% 0.00in /  0mm
14:15 15.4 °F /  -9.2 °C -0.8 °F /  -18.2 °C 29.92in /  1013.1hPa NW 1.0mph /  1.6km/h 8.0mph /  12.9km/h 48% 0.00in /  0mm
14:20 15.6 °F /  -9.1 °C -0.6 °F /  -18.1 °C 29.92in /  1013.1hPa NW 2.0mph /  3.2km/h 8.0mph /  12.9km/h 48% 0.00in /  0mm
14:25 15.9 °F /  -8.9 °C -0.8 °F /  -18.2 °C 29.92in /  1013.1hPa NW 1.0mph /  1.6km/h 6.0mph /  9.7km/h 47% 0.00in /  0mm
14:30 16.3 °F /  -8.7 °C -0.4 °F /  -18 °C 29.92in /  1013.1hPa North 2.0mph /  3.2km/h 7.0mph /  11.3km/h 47% 0.00in /  0mm
14:35 16.5 °F /  -8.6 °C -0.7 °F /  -18.2 °C 29.92in /  1013.1hPa NW 3.0mph /  4.8km/h 8.0mph /  12.9km/h 46% 0.00in /  0mm
14:39 16.4 °F /  -8.7 °C -0.8 °F /  -18.2 °C 29.93in /  1013.4hPa NW 2.0mph /  3.2km/h 8.0mph /  12.9km/h 46% 0.00in /  0mm
14:45 16.7 °F /  -8.5 °C -0.1 °F /  -17.8 °C 29.92in /  1013.1hPa North 2.0mph /  3.2km/h 7.0mph /  11.3km/h 47% 0.00in /  0mm
14:50 16.4 °F /  -8.7 °C -1.3 °F /  -18.5 °C 29.93in /  1013.4hPa NNW 4.0mph /  6.4km/h 7.0mph /  11.3km/h 45% 0.00in /  0mm
14:55 16.1 °F /  -8.8 °C -0.6 °F /  -18.1 °C 29.93in /  1013.4hPa NNW 1.0mph /  1.6km/h 7.0mph /  11.3km/h 47% 0.00in /  0mm
15:00 16.1 °F /  -8.8 °C -0.6 °F /  -18.1 °C 29.93in /  1013.4hPa NE 1.0mph /  1.6km/h 4.0mph /  6.4km/h 47% 0.00in /  0mm
15:05 16.2 °F /  -8.8 °C -0.5 °F /  -18.1 °C 29.93in /  1013.4hPa NW 2.0mph /  3.2km/h 6.0mph /  9.7km/h 47% 0.00in /  0mm
15:10 16.6 °F /  -8.6 °C -0.6 °F /  -18.1 °C 29.93in /  1013.4hPa NNW 2.0mph /  3.2km/h 6.0mph /  9.7km/h 46% 0.00in /  0mm
15:15 16.9 °F /  -8.4 °C 0.1 °F /  -17.7 °C 29.93in /  1013.4hPa NNW 1.0mph /  1.6km/h 4.0mph /  6.4km/h 47% 0.00in /  0mm
15:19 17.0 °F /  -8.3 °C 0.2 °F /  -17.7 °C 29.93in /  1013.4hPa North 1.0mph /  1.6km/h 5.0mph /  8km/h 47% 0.00in /  0mm
15:25 16.9 °F /  -8.4 °C -0.3 °F /  -17.9 °C 29.93in /  1013.4hPa Calm   5.0mph /  8km/h 46% 0.00in /  0mm
15:30 16.6 °F /  -8.6 °C -0.6 °F /  -18.1 °C 29.93in /  1013.4hPa North 1.0mph /  1.6km/h 5.0mph /  8km/h 46% 0.00in /  0mm
15:35 16.5 °F /  -8.6 °C -0.7 °F /  -18.2 °C 29.93in /  1013.4hPa NNW 1.0mph /  1.6km/h 5.0mph /  8km/h 46% 0.00in /  0mm
15:45 16.2 °F /  -8.8 °C -1.4 °F /  -18.6 °C 29.93in /  1013.4hPa West 2.0mph /  3.2km/h 5.0mph /  8km/h 45% 0.00in /  0mm
15:50 15.8 °F /  -9 °C -1.3 °F /  -18.5 °C 29.93in /  1013.4hPa WNW 1.0mph /  1.6km/h 6.0mph /  9.7km/h 46% 0.00in /  0mm
15:55 15.4 °F /  -9.2 °C -1.3 °F /  -18.5 °C 29.93in /  1013.4hPa NW 3.0mph /  4.8km/h 6.0mph /  9.7km/h 47% 0.00in /  0mm
16:00 15.0 °F /  -9.4 °C -1.2 °F /  -18.4 °C 29.93in /  1013.4hPa Calm   9.0mph /  14.5km/h 48% 0.00in /  0mm
16:05 14.8 °F /  -9.6 °C -0.9 °F /  -18.3 °C 29.93in /  1013.4hPa Calm   9.0mph /  14.5km/h 49% 0.00in /  0mm
16:10 14.8 °F /  -9.6 °C -1.4 °F /  -18.6 °C 29.93in /  1013.4hPa WNW 1.0mph /  1.6km/h 3.0mph /  4.8km/h 48% 0.00in /  0mm
16:15 14.8 °F /  -9.6 °C -0.9 °F /  -18.3 °C 29.93in /  1013.4hPa Calm   3.0mph /  4.8km/h 49% 0.00in /  0mm
16:20 14.7 °F /  -9.6 °C -0.6 °F /  -18.1 °C 29.93in /  1013.4hPa Calm   3.0mph /  4.8km/h 50% 0.00in /  0mm
16:25 14.6 °F /  -9.7 °C -0.3 °F /  -17.9 °C 29.93in /  1013.4hPa Calm   4.0mph /  6.4km/h 51% 0.00in /  0mm
16:30 14.7 °F /  -9.6 °C -1.0 °F /  -18.3 °C 29.93in /  1013.4hPa WNW 1.0mph /  1.6km/h 4.0mph /  6.4km/h 49% 0.00in /  0mm
16:35 14.8 °F /  -9.6 °C -0.5 °F /  -18.1 °C 29.93in /  1013.4hPa Calm   4.0mph /  6.4km/h 50% 0.00in /  0mm
16:40 14.9 °F /  -9.5 °C 0.4 °F /  -17.6 °C 29.93in /  1013.4hPa Calm   2.0mph /  3.2km/h 52% 0.00in /  0mm
16:44 15.0 °F /  -9.4 °C -0.3 °F /  -17.9 °C 29.93in /  1013.4hPa Calm   2.0mph /  3.2km/h 50% 0.00in /  0mm
16:50 15.0 °F /  -9.4 °C -0.3 °F /  -17.9 °C 29.93in /  1013.4hPa Calm   2.0mph /  3.2km/h 50% 0.00in /  0mm
16:55 14.6 °F /  -9.7 °C -0.7 °F /  -18.2 °C 29.93in /  1013.4hPa Calm     50% 0.00in /  0mm
17:00 14.2 °F /  -9.9 °C -1.1 °F /  -18.4 °C 29.93in /  1013.4hPa Calm     50% 0.00in /  0mm
17:05 13.7 °F /  -10.2 °C -1.9 °F /  -18.8 °C 29.93in /  1013.4hPa Calm     49% 0.00in /  0mm
17:10 13.1 °F /  -10.5 °C -2.1 °F /  -18.9 °C 29.93in /  1013.4hPa Calm     50% 0.00in /  0mm
17:15 12.5 °F /  -10.8 °C -1.8 °F /  -18.8 °C 29.93in /  1013.4hPa Calm     52% 0.00in /  0mm
17:20 11.4 °F /  -11.4 °C -0.5 °F /  -18.1 °C 29.93in /  1013.4hPa Calm     58% 0.00in /  0mm
17:25 11.0 °F /  -11.7 °C -0.5 °F /  -18.1 °C 29.93in /  1013.4hPa Calm     59% 0.00in /  0mm
17:30 10.5 °F /  -11.9 °C -0.3 °F /  -17.9 °C 29.93in /  1013.4hPa Calm     61% 0.00in /  0mm
17:35 9.9 °F /  -12.3 °C -0.9 °F /  -18.3 °C 29.93in /  1013.4hPa Calm     61% 0.00in /  0mm
17:40 9.7 °F /  -12.4 °C -0.7 °F /  -18.2 °C 29.93in /  1013.4hPa Calm   1.0mph /  1.6km/h 62% 0.00in /  0mm
17:45 9.9 °F /  -12.3 °C -0.2 °F /  -17.9 °C 29.93in /  1013.4hPa Calm   1.0mph /  1.6km/h 63% 0.00in /  0mm
17:50 10.0 °F /  -12.2 °C 0.2 °F /  -17.7 °C 29.94in /  1013.8hPa Calm     64% 0.00in /  0mm
17:55 10.3 °F /  -12.1 °C 0.5 °F /  -17.5 °C 29.94in /  1013.8hPa Calm     64% 0.00in /  0mm
18:00 10.4 °F /  -12 °C 1.0 °F /  -17.2 °C 29.93in /  1013.4hPa Calm     65% 0.00in /  0mm
18:05 10.3 °F /  -12.1 °C 0.2 °F /  -17.7 °C 29.94in /  1013.8hPa Calm     63% 0.00in /  0mm
18:10 10.3 °F /  -12.1 °C -0.5 °F /  -18.1 °C 29.94in /  1013.8hPa WNW 1.0mph /  1.6km/h 2.0mph /  3.2km/h 61% 0.00in /  0mm
18:14 9.9 °F /  -12.3 °C -0.9 °F /  -18.3 °C 29.94in /  1013.8hPa SSE 1.0mph /  1.6km/h 4.0mph /  6.4km/h 61% 0.00in /  0mm
18:20 10.8 °F /  -11.8 °C -1.1 °F /  -18.4 °C 29.94in /  1013.8hPa SW 2.0mph /  3.2km/h 7.0mph /  11.3km/h 58% 0.00in /  0mm
18:25 11.7 °F /  -11.3 °C -0.6 °F /  -18.1 °C 29.94in /  1013.8hPa SW 2.0mph /  3.2km/h 7.0mph /  11.3km/h 57% 0.00in /  0mm
18:30 12.5 °F /  -10.8 °C -0.2 °F /  -17.9 °C 29.94in /  1013.8hPa SW 5.0mph /  8km/h 10.0mph /  16.1km/h 56% 0.00in /  0mm
18:35 13.6 °F /  -10.2 °C 0.0 °F /  -17.8 °C 29.95in /  1014.1hPa WSW 3.0mph /  4.8km/h 10.0mph /  16.1km/h 54% 0.00in /  0mm
18:40 14.1 °F /  -9.9 °C 0.5 °F /  -17.5 °C 29.95in /  1014.1hPa WSW 5.0mph /  8km/h 10.0mph /  16.1km/h 54% 0.00in /  0mm
18:45 14.1 °F /  -9.9 °C 0.9 °F /  -17.3 °C 29.95in /  1014.1hPa SW 2.0mph /  3.2km/h 10.0mph /  16.1km/h 55% 0.00in /  0mm
18:50 14.1 °F /  -9.9 °C 0.9 °F /  -17.3 °C 29.95in /  1014.1hPa WSW 3.0mph /  4.8km/h 7.0mph /  11.3km/h 55% 0.00in /  0mm
18:55 14.0 °F /  -10 °C 1.2 °F /  -17.1 °C 29.95in /  1014.1hPa WSW 2.0mph /  3.2km/h 7.0mph /  11.3km/h 56% 0.00in /  0mm
19:00 14.1 °F /  -9.9 °C 1.7 °F /  -16.8 °C 29.95in /  1014.1hPa West 4.0mph /  6.4km/h 9.0mph /  14.5km/h 57% 0.00in /  0mm
19:05 14.4 °F /  -9.8 °C 1.9 °F /  -16.7 °C 29.95in /  1014.1hPa West 3.0mph /  4.8km/h 12.0mph /  19.3km/h 57% 0.00in /  0mm
19:10 14.4 °F /  -9.8 °C 1.9 °F /  -16.7 °C 29.95in /  1014.1hPa West 7.0mph /  11.3km/h 12.0mph /  19.3km/h 57% 0.00in /  0mm
19:15 14.5 °F /  -9.7 °C 2.0 °F /  -16.7 °C 29.95in /  1014.1hPa West 5.0mph /  8km/h 12.0mph /  19.3km/h 57% 0.00in /  0mm
19:20 14.5 °F /  -9.7 °C 2.0 °F /  -16.7 °C 29.95in /  1014.1hPa West 4.0mph /  6.4km/h 11.0mph /  17.7km/h 57% 0.00in /  0mm
19:25 14.5 °F /  -9.7 °C 2.4 °F /  -16.4 °C 29.95in /  1014.1hPa West 5.0mph /  8km/h 13.0mph /  20.9km/h 58% 0.00in /  0mm
19:30 14.3 °F /  -9.8 °C 2.6 °F /  -16.3 °C 29.95in /  1014.1hPa West 5.0mph /  8km/h 13.0mph /  20.9km/h 59% 0.00in /  0mm
19:35 14.3 °F /  -9.8 °C 2.9 °F /  -16.2 °C 29.95in /  1014.1hPa West 7.0mph /  11.3km/h 10.0mph /  16.1km/h 60% 0.00in /  0mm
19:40 14.4 °F /  -9.8 °C 3.0 °F /  -16.1 °C 29.95in /  1014.1hPa West 5.0mph /  8km/h 10.0mph /  16.1km/h 60% 0.00in /  0mm
19:45 14.3 °F /  -9.8 °C 2.9 °F /  -16.2 °C 29.95in /  1014.1hPa West 4.0mph /  6.4km/h 9.0mph /  14.5km/h 60% 0.00in /  0mm
19:50 14.2 °F /  -9.9 °C 3.2 °F /  -16 °C 29.95in /  1014.1hPa West 4.0mph /  6.4km/h 9.0mph /  14.5km/h 61% 0.00in /  0mm
19:55 14.0 °F /  -10 °C 3.0 °F /  -16.1 °C 29.95in /  1014.1hPa West 3.0mph /  4.8km/h 7.0mph /  11.3km/h 61% 0.00in /  0mm
20:00 14.0 °F /  -10 °C 3.0 °F /  -16.1 °C 29.95in /  1014.1hPa WNW 4.0mph /  6.4km/h 7.0mph /  11.3km/h 61% 0.00in /  0mm
20:05 14.1 °F /  -9.9 °C 3.1 °F /  -16.1 °C 29.95in /  1014.1hPa West 2.0mph /  3.2km/h 7.0mph /  11.3km/h 61% 0.00in /  0mm
20:10 14.1 °F /  -9.9 °C 3.1 °F /  -16.1 °C 29.95in /  1014.1hPa WSW 3.0mph /  4.8km/h 7.0mph /  11.3km/h 61% 0.00in /  0mm
20:15 14.0 °F /  -10 °C 3.4 °F /  -15.9 °C 29.94in /  1013.8hPa Calm   5.0mph /  8km/h 62% 0.00in /  0mm
20:20 13.8 °F /  -10.1 °C 3.2 °F /  -16 °C 29.95in /  1014.1hPa WSW 1.0mph /  1.6km/h 4.0mph /  6.4km/h 62% 0.00in /  0mm
20:25 13.7 °F /  -10.2 °C 3.4 °F /  -15.9 °C 29.95in /  1014.1hPa SW 2.0mph /  3.2km/h 5.0mph /  8km/h 63% 0.00in /  0mm
20:30 13.7 °F /  -10.2 °C 3.4 °F /  -15.9 °C 29.95in /  1014.1hPa WSW 1.0mph /  1.6km/h 5.0mph /  8km/h 63% 0.00in /  0mm
20:35 13.6 °F /  -10.2 °C 3.3 °F /  -15.9 °C 29.95in /  1014.1hPa Calm   3.0mph /  4.8km/h 63% 0.00in /  0mm
20:40 13.6 °F /  -10.2 °C 3.3 °F /  -15.9 °C 29.95in /  1014.1hPa WSW 2.0mph /  3.2km/h 6.0mph /  9.7km/h 63% 0.00in /  0mm
20:45 13.7 °F /  -10.2 °C 3.4 °F /  -15.9 °C 29.95in /  1014.1hPa West 1.0mph /  1.6km/h 6.0mph /  9.7km/h 63% 0.00in /  0mm
20:50 13.7 °F /  -10.2 °C 3.4 °F /  -15.9 °C 29.95in /  1014.1hPa Calm   5.0mph /  8km/h 63% 0.00in /  0mm
20:55 13.9 °F /  -10.1 °C 3.3 °F /  -15.9 °C 29.95in /  1014.1hPa West 2.0mph /  3.2km/h 4.0mph /  6.4km/h 62% 0.00in /  0mm
21:00 13.7 °F /  -10.2 °C 3.8 °F /  -15.7 °C 29.95in /  1014.1hPa Calm   4.0mph /  6.4km/h 64% 0.00in /  0mm
21:05 13.9 °F /  -10.1 °C 3.6 °F /  -15.8 °C 29.96in /  1014.4hPa WSW 3.0mph /  4.8km/h 6.0mph /  9.7km/h 63% 0.00in /  0mm
21:10 14.2 °F /  -9.9 °C 3.6 °F /  -15.8 °C 29.96in /  1014.4hPa WSW 1.0mph /  1.6km/h 6.0mph /  9.7km/h 62% 0.00in /  0mm
21:15 14.3 °F /  -9.8 °C 3.7 °F /  -15.7 °C 29.96in /  1014.4hPa SW 1.0mph /  1.6km/h 6.0mph /  9.7km/h 62% 0.00in /  0mm
21:20 14.4 °F /  -9.8 °C 3.8 °F /  -15.7 °C 29.96in /  1014.4hPa WSW 5.0mph /  8km/h 8.0mph /  12.9km/h 62% 0.00in /  0mm
21:25 14.6 °F /  -9.7 °C 3.9 °F /  -15.6 °C 29.95in /  1014.1hPa WSW 3.0mph /  4.8km/h 8.0mph /  12.9km/h 62% 0.00in /  0mm
21:30 14.5 °F /  -9.7 °C 3.8 °F /  -15.7 °C 29.95in /  1014.1hPa SW 2.0mph /  3.2km/h 7.0mph /  11.3km/h 62% 0.00in /  0mm
21:35 14.4 °F /  -9.8 °C 3.8 °F /  -15.7 °C 29.95in /  1014.1hPa SW 2.0mph /  3.2km/h 5.0mph /  8km/h 62% 0.00in /  0mm
21:40 14.5 °F /  -9.7 °C 3.8 °F /  -15.7 °C 29.96in /  1014.4hPa SW 1.0mph /  1.6km/h 5.0mph /  8km/h 62% 0.00in /  0mm
21:45 14.5 °F /  -9.7 °C 3.8 °F /  -15.7 °C 29.96in /  1014.4hPa Calm   4.0mph /  6.4km/h 62% 0.00in /  0mm
21:50 14.4 °F /  -9.8 °C 4.1 °F /  -15.5 °C 29.96in /  1014.4hPa Calm   3.0mph /  4.8km/h 63% 0.00in /  0mm
21:55 14.3 °F /  -9.8 °C 4.0 °F /  -15.6 °C 29.96in /  1014.4hPa SSW 1.0mph /  1.6km/h 5.0mph /  8km/h 63% 0.00in /  0mm
22:00 14.3 °F /  -9.8 °C 4.0 °F /  -15.6 °C 29.96in /  1014.4hPa SW 1.0mph /  1.6km/h 6.0mph /  9.7km/h 63% 0.00in /  0mm
22:05 14.3 °F /  -9.8 °C 3.7 °F /  -15.7 °C 29.96in /  1014.4hPa SW 5.0mph /  8km/h 8.0mph /  12.9km/h 62% 0.00in /  0mm
22:10 14.4 °F /  -9.8 °C 3.8 °F /  -15.7 °C 29.96in /  1014.4hPa SW 3.0mph /  4.8km/h 8.0mph /  12.9km/h 62% 0.00in /  0mm
22:15 14.5 °F /  -9.7 °C 3.5 °F /  -15.8 °C 29.96in /  1014.4hPa SW 3.0mph /  4.8km/h 7.0mph /  11.3km/h 61% 0.00in /  0mm
22:20 14.4 °F /  -9.8 °C 3.4 °F /  -15.9 °C 29.95in /  1014.1hPa WSW 2.0mph /  3.2km/h 8.0mph /  12.9km/h 61% 0.00in /  0mm
22:25 14.3 °F /  -9.8 °C 3.3 °F /  -15.9 °C 29.95in /  1014.1hPa SW 1.0mph /  1.6km/h 8.0mph /  12.9km/h 61% 0.00in /  0mm
22:30 14.3 °F /  -9.8 °C 3.3 °F /  -15.9 °C 29.95in /  1014.1hPa SW 3.0mph /  4.8km/h 8.0mph /  12.9km/h 61% 0.00in /  0mm
22:35 14.3 °F /  -9.8 °C 3.7 °F /  -15.7 °C 29.96in /  1014.4hPa WSW 2.0mph /  3.2km/h 8.0mph /  12.9km/h 62% 0.00in /  0mm
22:40 14.2 °F /  -9.9 °C 3.6 °F /  -15.8 °C 29.96in /  1014.4hPa Calm   5.0mph /  8km/h 62% 0.00in /  0mm
22:45 14.1 °F /  -9.9 °C 3.8 °F /  -15.7 °C 29.96in /  1014.4hPa SW 3.0mph /  4.8km/h 5.0mph /  8km/h 63% 0.00in /  0mm
22:50 14.3 °F /  -9.8 °C 4.0 °F /  -15.6 °C 29.95in /  1014.1hPa SW 1.0mph /  1.6km/h 5.0mph /  8km/h 63% 0.00in /  0mm
22:55 14.4 °F /  -9.8 °C 3.8 °F /  -15.7 °C 29.96in /  1014.4hPa SW 4.0mph /  6.4km/h 7.0mph /  11.3km/h 62% 0.00in /  0mm
23:00 14.7 °F /  -9.6 °C 4.0 °F /  -15.6 °C 29.96in /  1014.4hPa SW 6.0mph /  9.7km/h 14.0mph /  22.5km/h 62% 0.00in /  0mm
23:05 14.7 °F /  -9.6 °C 4.0 °F /  -15.6 °C 29.96in /  1014.4hPa SW 6.0mph /  9.7km/h 14.0mph /  22.5km/h 62% 0.00in /  0mm
23:10 14.6 °F /  -9.7 °C 3.9 °F /  -15.6 °C 29.96in /  1014.4hPa West 5.0mph /  8km/h 11.0mph /  17.7km/h 62% 0.00in /  0mm
23:15 14.6 °F /  -9.7 °C 3.9 °F /  -15.6 °C 29.96in /  1014.4hPa WSW 3.0mph /  4.8km/h 9.0mph /  14.5km/h 62% 0.00in /  0mm
23:20 14.5 °F /  -9.7 °C 3.8 °F /  -15.7 °C 29.96in /  1014.4hPa WSW 4.0mph /  6.4km/h 8.0mph /  12.9km/h 62% 0.00in /  0mm
23:25 14.5 °F /  -9.7 °C 3.8 °F /  -15.7 °C 29.97in /  1014.8hPa WSW 6.0mph /  9.7km/h 8.0mph /  12.9km/h 62% 0.00in /  0mm
23:30 14.3 °F /  -9.8 °C 4.0 °F /  -15.6 °C 29.97in /  1014.8hPa SW 1.0mph /  1.6km/h 8.0mph /  12.9km/h 63% 0.00in /  0mm
23:35 14.3 °F /  -9.8 °C 4.0 °F /  -15.6 °C 29.97in /  1014.8hPa SW 4.0mph /  6.4km/h 8.0mph /  12.9km/h 63% 0.00in /  0mm
23:45 14.3 °F /  -9.8 °C 4.0 °F /  -15.6 °C 29.97in /  1014.8hPa WSW 3.0mph /  4.8km/h 7.0mph /  11.3km/h 63% 0.00in /  0mm
23:50 14.3 °F /  -9.8 °C 4.3 °F /  -15.4 °C 29.97in /  1014.8hPa SW 2.0mph /  3.2km/h 7.0mph /  11.3km/h 64% 0.00in /  0mm
23:55 14.4 °F /  -9.8 °C 4.1 °F /  -15.5 °C 29.98in /  1015.1hPa SW 4.0mph /  6.4km/h 7.0mph /  11.3km/h 63% 0.00in /  0mm
Westford Weather
Compliments of Weather Underground

 
 
Current Radar Loop:

Copyright © WestfordWeather.net 2007-2014. All rights reserved.